sensor_id;sensor_type;location;lat;lon;timestamp;pressure;altitude;pressure_sealevel;temperature;humidity
55022;BME280;68328;35.990;-86.756;2023-03-12T00:00:57;98499.09;;;14.16;40.71
55022;BME280;68328;35.990;-86.756;2023-03-12T00:03:23;98497.14;;;14.47;40.96
55022;BME280;68328;35.990;-86.756;2023-03-12T00:05:48;98508.95;;;14.24;40.71
55022;BME280;68328;35.990;-86.756;2023-03-12T00:08:13;98507.82;;;14.16;40.15
55022;BME280;68328;35.990;-86.756;2023-03-12T00:10:40;98506.07;;;13.81;38.41
55022;BME280;68328;35.990;-86.756;2023-03-12T00:13:04;98491.85;;;13.67;38.20
55022;BME280;68328;35.990;-86.756;2023-03-12T00:15:29;98474.08;;;13.73;37.46
55022;BME280;68328;35.990;-86.756;2023-03-12T00:17:55;98468.36;;;13.66;37.97
55022;BME280;68328;35.990;-86.756;2023-03-12T00:20:20;98456.84;;;13.19;37.03
55022;BME280;68328;35.990;-86.756;2023-03-12T00:22:45;98467.24;;;13.91;37.15
55022;BME280;68328;35.990;-86.756;2023-03-12T00:25:13;98464.69;;;13.21;38.59
55022;BME280;68328;35.990;-86.756;2023-03-12T00:27:36;98475.63;;;13.68;37.46
55022;BME280;68328;35.990;-86.756;2023-03-12T00:30:01;98481.36;;;11.82;37.81
55022;BME280;68328;35.990;-86.756;2023-03-12T00:32:26;98492.39;;;13.39;35.99
55022;BME280;68328;35.990;-86.756;2023-03-12T00:34:53;98514.48;;;12.18;37.47
55022;BME280;68328;35.990;-86.756;2023-03-12T00:37:18;98513.04;;;13.48;37.10
55022;BME280;68328;35.990;-86.756;2023-03-12T00:39:43;98504.28;;;13.83;36.96
55022;BME280;68328;35.990;-86.756;2023-03-12T00:42:08;98497.23;;;14.24;36.14
55022;BME280;68328;35.990;-86.756;2023-03-12T00:44:34;98494.10;;;14.12;37.47
55022;BME280;68328;35.990;-86.756;2023-03-12T00:46:59;98498.40;;;14.37;36.47
55022;BME280;68328;35.990;-86.756;2023-03-12T00:49:24;98503.88;;;14.11;35.34
55022;BME280;68328;35.990;-86.756;2023-03-12T00:51:49;98508.48;;;14.07;36.12
55022;BME280;68328;35.990;-86.756;2023-03-12T00:54:15;98511.46;;;14.20;38.00
55022;BME280;68328;35.990;-86.756;2023-03-12T00:56:41;98498.64;;;14.36;37.52
55022;BME280;68328;35.990;-86.756;2023-03-12T00:59:05;98491.55;;;14.63;36.97
55022;BME280;68328;35.990;-86.756;2023-03-12T01:01:31;98499.52;;;14.37;37.41
55022;BME280;68328;35.990;-86.756;2023-03-12T01:03:56;98518.29;;;14.49;36.66
55022;BME280;68328;35.990;-86.756;2023-03-12T01:06:21;98536.43;;;14.60;36.51
55022;BME280;68328;35.990;-86.756;2023-03-12T01:08:46;98565.43;;;14.46;35.37
55022;BME280;68328;35.990;-86.756;2023-03-12T01:11:13;98587.05;;;14.39;36.11
55022;BME280;68328;35.990;-86.756;2023-03-12T01:13:38;98551.91;;;14.45;37.06
55022;BME280;68328;35.990;-86.756;2023-03-12T01:16:03;98495.01;;;14.15;38.73
55022;BME280;68328;35.990;-86.756;2023-03-12T01:18:29;98478.69;;;14.66;38.05
55022;BME280;68328;35.990;-86.756;2023-03-12T01:20:54;98485.95;;;14.76;39.64
55022;BME280;68328;35.990;-86.756;2023-03-12T01:23:19;98497.82;;;14.64;38.59
55022;BME280;68328;35.990;-86.756;2023-03-12T01:25:44;98507.44;;;14.38;37.96
55022;BME280;68328;35.990;-86.756;2023-03-12T01:28:09;98527.92;;;14.27;38.36
55022;BME280;68328;35.990;-86.756;2023-03-12T01:30:35;98539.40;;;14.45;38.12
55022;BME280;68328;35.990;-86.756;2023-03-12T01:33:00;98557.81;;;14.32;37.83
55022;BME280;68328;35.990;-86.756;2023-03-12T01:35:26;98556.83;;;13.96;38.25
55022;BME280;68328;35.990;-86.756;2023-03-12T01:37:51;98551.79;;;14.04;39.06
55022;BME280;68328;35.990;-86.756;2023-03-12T01:40:20;98515.82;;;14.29;39.43
55022;BME280;68328;35.990;-86.756;2023-03-12T01:42:41;98514.86;;;14.08;39.37
55022;BME280;68328;35.990;-86.756;2023-03-12T01:47:32;98503.74;;;14.41;40.80
55022;BME280;68328;35.990;-86.756;2023-03-12T01:49:59;98519.71;;;14.18;40.99
55022;BME280;68328;35.990;-86.756;2023-03-12T01:52:26;98480.53;;;12.69;42.92
55022;BME280;68328;35.990;-86.756;2023-03-12T01:54:52;98459.37;;;13.79;41.29
55022;BME280;68328;35.990;-86.756;2023-03-12T01:57:16;98472.13;;;13.59;42.67
55022;BME280;68328;35.990;-86.756;2023-03-12T01:59:43;98460.74;;;13.58;42.77
55022;BME280;68328;35.990;-86.756;2023-03-12T02:02:05;98420.19;;;13.22;41.74
55022;BME280;68328;35.990;-86.756;2023-03-12T02:04:31;98392.58;;;12.05;42.76
55022;BME280;68328;35.990;-86.756;2023-03-12T02:07:00;98409.63;;;9.79;46.63
55022;BME280;68328;35.990;-86.756;2023-03-12T02:09:21;98411.92;;;10.40;45.60
55022;BME280;68328;35.990;-86.756;2023-03-12T02:11:46;98429.17;;;11.16;44.22
55022;BME280;68328;35.990;-86.756;2023-03-12T02:14:12;98443.14;;;12.72;42.63
55022;BME280;68328;35.990;-86.756;2023-03-12T02:16:37;98448.97;;;12.67;42.03
55022;BME280;68328;35.990;-86.756;2023-03-12T02:19:05;98435.77;;;13.27;40.84
55022;BME280;68328;35.990;-86.756;2023-03-12T02:21:29;98433.56;;;12.78;41.94
55022;BME280;68328;35.990;-86.756;2023-03-12T02:23:59;98437.54;;;12.64;42.48
55022;BME280;68328;35.990;-86.756;2023-03-12T02:26:18;98426.13;;;11.90;44.24
55022;BME280;68328;35.990;-86.756;2023-03-12T02:28:44;98397.10;;;12.95;43.64
55022;BME280;68328;35.990;-86.756;2023-03-12T02:31:11;98417.09;;;12.96;42.93
55022;BME280;68328;35.990;-86.756;2023-03-12T02:33:33;98436.10;;;13.46;42.01
55022;BME280;68328;35.990;-86.756;2023-03-12T02:35:59;98435.99;;;13.64;41.46
55022;BME280;68328;35.990;-86.756;2023-03-12T02:38:35;98407.60;;;13.41;43.43
55022;BME280;68328;35.990;-86.756;2023-03-12T02:40:51;98383.27;;;13.15;43.52
55022;BME280;68328;35.990;-86.756;2023-03-12T02:43:19;98378.56;;;12.23;43.20
55022;BME280;68328;35.990;-86.756;2023-03-12T02:45:40;98411.16;;;11.43;45.72
55022;BME280;68328;35.990;-86.756;2023-03-12T02:48:08;98387.18;;;12.20;45.41
55022;BME280;68328;35.990;-86.756;2023-03-12T02:50:31;98360.60;;;13.02;45.25
55022;BME280;68328;35.990;-86.756;2023-03-12T02:52:56;98354.51;;;12.92;45.85
55022;BME280;68328;35.990;-86.756;2023-03-12T02:55:22;98394.85;;;11.61;47.04
55022;BME280;68328;35.990;-86.756;2023-03-12T02:57:47;98382.48;;;10.37;48.09
55022;BME280;68328;35.990;-86.756;2023-03-12T03:00:15;98373.40;;;11.80;48.92
55022;BME280;68328;35.990;-86.756;2023-03-12T03:02:39;98359.19;;;10.86;48.55
55022;BME280;68328;35.990;-86.756;2023-03-12T03:05:05;98370.14;;;10.00;50.68
55022;BME280;68328;35.990;-86.756;2023-03-12T03:07:29;98356.46;;;10.29;51.87
55022;BME280;68328;35.990;-86.756;2023-03-12T03:09:55;98350.84;;;10.98;50.47
55022;BME280;68328;35.990;-86.756;2023-03-12T03:12:20;98371.68;;;10.53;50.79
55022;BME280;68328;35.990;-86.756;2023-03-12T03:14:45;98372.12;;;8.50;55.51
55022;BME280;68328;35.990;-86.756;2023-03-12T03:17:10;98359.05;;;9.91;54.14
55022;BME280;68328;35.990;-86.756;2023-03-12T03:19:36;98338.01;;;11.11;52.06
55022;BME280;68328;35.990;-86.756;2023-03-12T03:22:01;98329.62;;;10.82;51.55
55022;BME280;68328;35.990;-86.756;2023-03-12T03:24:26;98330.42;;;9.54;55.33
55022;BME280;68328;35.990;-86.756;2023-03-12T03:26:52;98316.92;;;10.96;52.44
55022;BME280;68328;35.990;-86.756;2023-03-12T03:29:17;98312.40;;;11.32;51.46
55022;BME280;68328;35.990;-86.756;2023-03-12T03:31:42;98318.55;;;11.80;49.70
55022;BME280;68328;35.990;-86.756;2023-03-12T03:34:07;98324.12;;;12.69;48.66
55022;BME280;68328;35.990;-86.756;2023-03-12T03:36:33;98310.47;;;12.37;48.32
55022;BME280;68328;35.990;-86.756;2023-03-12T03:38:58;98300.25;;;12.55;48.10
55022;BME280;68328;35.990;-86.756;2023-03-12T03:41:23;98297.51;;;12.55;48.39
55022;BME280;68328;35.990;-86.756;2023-03-12T03:43:48;98277.58;;;12.79;47.47
55022;BME280;68328;35.990;-86.756;2023-03-12T03:46:14;98262.53;;;12.83;48.07
55022;BME280;68328;35.990;-86.756;2023-03-12T03:48:40;98255.92;;;12.92;47.38
55022;BME280;68328;35.990;-86.756;2023-03-12T03:51:06;98232.55;;;12.72;47.49
55022;BME280;68328;35.990;-86.756;2023-03-12T03:53:30;98241.76;;;13.05;47.03
55022;BME280;68328;35.990;-86.756;2023-03-12T03:55:55;98238.96;;;12.50;48.06
55022;BME280;68328;35.990;-86.756;2023-03-12T03:58:21;98221.96;;;12.82;47.36
55022;BME280;68328;35.990;-86.756;2023-03-12T04:00:47;98209.41;;;12.84;47.29
55022;BME280;68328;35.990;-86.756;2023-03-12T04:03:12;98212.78;;;12.79;47.69
55022;BME280;68328;35.990;-86.756;2023-03-12T04:05:37;98215.96;;;12.94;48.05
55022;BME280;68328;35.990;-86.756;2023-03-12T04:08:03;98180.36;;;12.65;48.75
55022;BME280;68328;35.990;-86.756;2023-03-12T04:10:29;98173.84;;;12.66;48.83
55022;BME280;68328;35.990;-86.756;2023-03-12T04:12:53;98158.05;;;12.69;49.47
55022;BME280;68328;35.990;-86.756;2023-03-12T04:15:19;98149.16;;;12.79;49.71
55022;BME280;68328;35.990;-86.756;2023-03-12T04:17:44;98136.71;;;12.13;50.20
55022;BME280;68328;35.990;-86.756;2023-03-12T04:20:10;98130.58;;;12.66;49.72
55022;BME280;68328;35.990;-86.756;2023-03-12T04:22:35;98141.36;;;11.98;50.17
55022;BME280;68328;35.990;-86.756;2023-03-12T04:25:00;98128.67;;;11.88;50.21
55022;BME280;68328;35.990;-86.756;2023-03-12T04:27:25;98130.84;;;12.01;50.87
55022;BME280;68328;35.990;-86.756;2023-03-12T04:29:50;98138.91;;;12.11;50.69
55022;BME280;68328;35.990;-86.756;2023-03-12T04:32:15;98159.11;;;12.15;51.00
55022;BME280;68328;35.990;-86.756;2023-03-12T04:34:41;98129.00;;;12.58;50.34
55022;BME280;68328;35.990;-86.756;2023-03-12T04:37:07;98143.84;;;12.29;50.32
55022;BME280;68328;35.990;-86.756;2023-03-12T04:39:31;98137.39;;;12.59;49.72
55022;BME280;68328;35.990;-86.756;2023-03-12T04:41:56;98134.70;;;12.41;49.62
55022;BME280;68328;35.990;-86.756;2023-03-12T04:44:22;98145.85;;;12.47;49.50
55022;BME280;68328;35.990;-86.756;2023-03-12T04:46:47;98147.58;;;12.60;49.13
55022;BME280;68328;35.990;-86.756;2023-03-12T04:49:12;98113.03;;;12.76;49.92
55022;BME280;68328;35.990;-86.756;2023-03-12T04:51:38;98096.48;;;12.75;49.49
55022;BME280;68328;35.990;-86.756;2023-03-12T04:56:30;98080.97;;;12.74;48.78
55022;BME280;68328;35.990;-86.756;2023-03-12T04:58:54;98093.29;;;12.79;49.04
55022;BME280;68328;35.990;-86.756;2023-03-12T05:01:24;98115.40;;;12.62;49.73
55022;BME280;68328;35.990;-86.756;2023-03-12T05:03:44;98108.21;;;12.39;49.88
55022;BME280;68328;35.990;-86.756;2023-03-12T05:06:09;98134.86;;;12.52;49.98
55022;BME280;68328;35.990;-86.756;2023-03-12T05:08:35;98124.42;;;12.61;49.74
55022;BME280;68328;35.990;-86.756;2023-03-12T05:11:01;98124.95;;;12.71;49.74
55022;BME280;68328;35.990;-86.756;2023-03-12T05:13:25;98138.56;;;13.12;49.64
55022;BME280;68328;35.990;-86.756;2023-03-12T05:15:51;98153.58;;;12.68;49.58
55022;BME280;68328;35.990;-86.756;2023-03-12T05:18:16;98179.20;;;12.91;49.09
55022;BME280;68328;35.990;-86.756;2023-03-12T05:20:41;98163.71;;;13.01;49.12
55022;BME280;68328;35.990;-86.756;2023-03-12T05:23:07;98154.63;;;13.14;48.57
55022;BME280;68328;35.990;-86.756;2023-03-12T05:25:31;98144.65;;;13.29;48.17
55022;BME280;68328;35.990;-86.756;2023-03-12T05:27:58;98141.41;;;12.94;48.55
55022;BME280;68328;35.990;-86.756;2023-03-12T05:30:22;98131.79;;;13.03;48.81
55022;BME280;68328;35.990;-86.756;2023-03-12T05:32:47;98146.13;;;12.33;49.65
55022;BME280;68328;35.990;-86.756;2023-03-12T05:35:14;98150.75;;;12.77;49.32
55022;BME280;68328;35.990;-86.756;2023-03-12T05:37:39;98129.02;;;12.71;49.58
55022;BME280;68328;35.990;-86.756;2023-03-12T05:40:04;98118.46;;;13.13;48.79
55022;BME280;68328;35.990;-86.756;2023-03-12T05:42:29;98113.15;;;13.24;48.61
55022;BME280;68328;35.990;-86.756;2023-03-12T05:44:54;98105.53;;;13.27;48.48
55022;BME280;68328;35.990;-86.756;2023-03-12T05:47:19;98096.65;;;13.33;49.02
55022;BME280;68328;35.990;-86.756;2023-03-12T05:49:45;98083.36;;;13.33;48.64
55022;BME280;68328;35.990;-86.756;2023-03-12T05:52:11;98075.10;;;13.48;48.12
55022;BME280;68328;35.990;-86.756;2023-03-12T05:54:35;98077.76;;;13.33;48.10
55022;BME280;68328;35.990;-86.756;2023-03-12T05:57:00;98077.40;;;13.31;48.16
55022;BME280;68328;35.990;-86.756;2023-03-12T05:59:26;98069.60;;;13.15;48.24
55022;BME280;68328;35.990;-86.756;2023-03-12T06:01:51;98064.12;;;13.30;47.58
55022;BME280;68328;35.990;-86.756;2023-03-12T06:04:16;98053.26;;;13.55;47.53
55022;BME280;68328;35.990;-86.756;2023-03-12T06:06:43;98050.88;;;13.54;48.12
55022;BME280;68328;35.990;-86.756;2023-03-12T06:09:07;98039.22;;;13.68;48.23
55022;BME280;68328;35.990;-86.756;2023-03-12T06:11:33;98027.80;;;13.32;49.23
55022;BME280;68328;35.990;-86.756;2023-03-12T06:13:58;98017.11;;;13.11;49.09
55022;BME280;68328;35.990;-86.756;2023-03-12T06:16:25;98010.69;;;13.47;49.12
55022;BME280;68328;35.990;-86.756;2023-03-12T06:18:53;98007.94;;;13.17;48.91
55022;BME280;68328;35.990;-86.756;2023-03-12T06:21:16;98013.97;;;13.50;48.99
55022;BME280;68328;35.990;-86.756;2023-03-12T06:23:41;98005.47;;;13.48;49.11
55022;BME280;68328;35.990;-86.756;2023-03-12T06:26:04;97987.26;;;13.10;48.81
55022;BME280;68328;35.990;-86.756;2023-03-12T06:28:30;97989.42;;;13.31;49.61
55022;BME280;68328;35.990;-86.756;2023-03-12T06:30:55;97992.91;;;13.25;49.25
55022;BME280;68328;35.990;-86.756;2023-03-12T06:33:22;97985.85;;;13.34;49.25
55022;BME280;68328;35.990;-86.756;2023-03-12T06:35:46;97994.78;;;12.98;49.39
55022;BME280;68328;35.990;-86.756;2023-03-12T06:38:11;97999.36;;;13.37;49.03
55022;BME280;68328;35.990;-86.756;2023-03-12T06:40:36;97991.92;;;13.20;49.02
55022;BME280;68328;35.990;-86.756;2023-03-12T06:43:01;97986.39;;;13.23;49.09
55022;BME280;68328;35.990;-86.756;2023-03-12T06:45:27;97987.34;;;13.15;48.53
55022;BME280;68328;35.990;-86.756;2023-03-12T06:47:51;97970.76;;;13.26;48.80
55022;BME280;68328;35.990;-86.756;2023-03-12T06:50:17;97977.42;;;13.35;49.25
55022;BME280;68328;35.990;-86.756;2023-03-12T06:52:43;97977.89;;;13.19;49.32
55022;BME280;68328;35.990;-86.756;2023-03-12T06:55:10;97962.70;;;13.35;48.91
55022;BME280;68328;35.990;-86.756;2023-03-12T06:57:33;97970.10;;;13.04;48.94
55022;BME280;68328;35.990;-86.756;2023-03-12T06:59:58;97962.87;;;13.10;48.71
55022;BME280;68328;35.990;-86.756;2023-03-12T07:02:24;97957.44;;;13.26;49.69
55022;BME280;68328;35.990;-86.756;2023-03-12T07:04:50;97967.01;;;13.16;49.09
55022;BME280;68328;35.990;-86.756;2023-03-12T07:07:14;97972.98;;;12.98;49.72
55022;BME280;68328;35.990;-86.756;2023-03-12T07:09:39;97969.36;;;13.12;49.23
55022;BME280;68328;35.990;-86.756;2023-03-12T07:12:05;97976.13;;;13.21;49.22
55022;BME280;68328;35.990;-86.756;2023-03-12T07:14:30;97991.37;;;13.22;49.13
55022;BME280;68328;35.990;-86.756;2023-03-12T07:16:56;97996.59;;;13.29;49.47
55022;BME280;68328;35.990;-86.756;2023-03-12T07:19:21;98003.77;;;13.30;49.12
55022;BME280;68328;35.990;-86.756;2023-03-12T07:21:46;97981.43;;;13.67;49.06
55022;BME280;68328;35.990;-86.756;2023-03-12T07:24:12;97967.95;;;13.44;49.60
55022;BME280;68328;35.990;-86.756;2023-03-12T07:26:37;98005.95;;;13.03;50.61
55022;BME280;68328;35.990;-86.756;2023-03-12T07:29:03;98008.41;;;13.23;51.37
55022;BME280;68328;35.990;-86.756;2023-03-12T07:31:28;98010.98;;;13.21;50.84
55022;BME280;68328;35.990;-86.756;2023-03-12T07:33:53;98018.52;;;13.32;50.68
55022;BME280;68328;35.990;-86.756;2023-03-12T07:36:20;98007.79;;;13.61;50.18
55022;BME280;68328;35.990;-86.756;2023-03-12T07:38:45;97999.17;;;13.40;50.30
55022;BME280;68328;35.990;-86.756;2023-03-12T07:41:09;98003.85;;;13.43;49.87
55022;BME280;68328;35.990;-86.756;2023-03-12T07:43:34;97974.71;;;13.36;50.21
55022;BME280;68328;35.990;-86.756;2023-03-12T07:45:59;97971.31;;;13.28;50.15
55022;BME280;68328;35.990;-86.756;2023-03-12T07:48:26;97976.62;;;13.32;50.33
55022;BME280;68328;35.990;-86.756;2023-03-12T07:50:50;97951.86;;;13.44;50.59
55022;BME280;68328;35.990;-86.756;2023-03-12T07:53:17;97948.50;;;13.62;50.23
55022;BME280;68328;35.990;-86.756;2023-03-12T07:55:44;97935.59;;;13.23;50.53
55022;BME280;68328;35.990;-86.756;2023-03-12T07:58:06;97952.23;;;13.46;49.76
55022;BME280;68328;35.990;-86.756;2023-03-12T08:00:32;97960.31;;;13.29;50.12
55022;BME280;68328;35.990;-86.756;2023-03-12T08:02:57;97960.86;;;13.39;50.10
55022;BME280;68328;35.990;-86.756;2023-03-12T08:05:22;97946.76;;;13.40;50.01
55022;BME280;68328;35.990;-86.756;2023-03-12T08:07:47;97942.02;;;13.33;49.48
55022;BME280;68328;35.990;-86.756;2023-03-12T08:10:12;97948.57;;;13.42;49.48
55022;BME280;68328;35.990;-86.756;2023-03-12T08:12:39;97949.58;;;13.21;49.48
55022;BME280;68328;35.990;-86.756;2023-03-12T08:15:03;97943.58;;;13.61;49.34
55022;BME280;68328;35.990;-86.756;2023-03-12T08:17:28;97948.12;;;13.66;49.01
55022;BME280;68328;35.990;-86.756;2023-03-12T08:19:53;97958.38;;;13.65;48.92
55022;BME280;68328;35.990;-86.756;2023-03-12T08:22:18;97943.28;;;14.02;48.92
55022;BME280;68328;35.990;-86.756;2023-03-12T08:24:44;97942.11;;;13.47;48.81
55022;BME280;68328;35.990;-86.756;2023-03-12T08:27:09;97949.28;;;13.84;48.63
55022;BME280;68328;35.990;-86.756;2023-03-12T08:29:34;97945.69;;;13.90;49.11
55022;BME280;68328;35.990;-86.756;2023-03-12T08:31:59;97941.17;;;13.24;49.07
55022;BME280;68328;35.990;-86.756;2023-03-12T08:34:25;97939.40;;;13.21;49.40
55022;BME280;68328;35.990;-86.756;2023-03-12T08:36:51;97936.68;;;13.33;49.15
55022;BME280;68328;35.990;-86.756;2023-03-12T08:39:15;97927.77;;;13.72;49.24
55022;BME280;68328;35.990;-86.756;2023-03-12T08:41:41;97937.72;;;13.40;49.24
55022;BME280;68328;35.990;-86.756;2023-03-12T08:44:06;97938.52;;;13.26;49.13
55022;BME280;68328;35.990;-86.756;2023-03-12T08:46:32;97942.84;;;13.88;48.89
55022;BME280;68328;35.990;-86.756;2023-03-12T08:48:57;97947.97;;;13.41;49.27
55022;BME280;68328;35.990;-86.756;2023-03-12T08:51:22;97945.37;;;13.54;49.20
55022;BME280;68328;35.990;-86.756;2023-03-12T08:53:48;97957.79;;;13.32;48.91
55022;BME280;68328;35.990;-86.756;2023-03-12T08:58:39;97949.22;;;13.56;48.60
55022;BME280;68328;35.990;-86.756;2023-03-12T09:01:08;97943.11;;;13.45;48.51
55022;BME280;68328;35.990;-86.756;2023-03-12T09:03:29;97940.74;;;13.69;48.85
55022;BME280;68328;35.990;-86.756;2023-03-12T09:06:04;97934.40;;;13.44;49.15
55022;BME280;68328;35.990;-86.756;2023-03-12T09:08:20;97927.63;;;13.67;49.11
55022;BME280;68328;35.990;-86.756;2023-03-12T09:10:48;97933.20;;;13.46;49.03
55022;BME280;68328;35.990;-86.756;2023-03-12T09:13:10;97940.65;;;13.72;48.87
55022;BME280;68328;35.990;-86.756;2023-03-12T09:15:35;97940.12;;;13.43;48.84
55022;BME280;68328;35.990;-86.756;2023-03-12T09:18:01;97942.05;;;13.66;48.89
55022;BME280;68328;35.990;-86.756;2023-03-12T09:20:26;97952.22;;;13.48;49.63
55022;BME280;68328;35.990;-86.756;2023-03-12T09:22:52;97953.48;;;13.14;50.06
55022;BME280;68328;35.990;-86.756;2023-03-12T09:25:17;97956.46;;;13.56;49.70
55022;BME280;68328;35.990;-86.756;2023-03-12T09:27:45;97956.60;;;13.39;49.39
55022;BME280;68328;35.990;-86.756;2023-03-12T09:30:13;97956.65;;;13.55;48.99
55022;BME280;68328;35.990;-86.756;2023-03-12T09:32:33;97957.10;;;13.41;49.29
55022;BME280;68328;35.990;-86.756;2023-03-12T09:34:59;97955.23;;;13.80;48.58
55022;BME280;68328;35.990;-86.756;2023-03-12T09:37:23;97942.51;;;13.59;48.61
55022;BME280;68328;35.990;-86.756;2023-03-12T09:39:49;97941.19;;;13.81;48.87
55022;BME280;68328;35.990;-86.756;2023-03-12T09:42:20;97927.32;;;13.25;49.31
55022;BME280;68328;35.990;-86.756;2023-03-12T09:44:42;97937.07;;;13.80;48.95
55022;BME280;68328;35.990;-86.756;2023-03-12T09:47:08;97950.19;;;13.53;48.99
55022;BME280;68328;35.990;-86.756;2023-03-12T09:49:36;97943.52;;;13.95;48.66
55022;BME280;68328;35.990;-86.756;2023-03-12T09:51:57;97932.14;;;13.70;48.97
55022;BME280;68328;35.990;-86.756;2023-03-12T09:54:24;97937.19;;;13.70;48.99
55022;BME280;68328;35.990;-86.756;2023-03-12T09:56:46;97939.39;;;13.90;48.78
55022;BME280;68328;35.990;-86.756;2023-03-12T09:59:11;97951.78;;;13.97;48.59
55022;BME280;68328;35.990;-86.756;2023-03-12T10:01:40;97953.74;;;14.05;48.54
55022;BME280;68328;35.990;-86.756;2023-03-12T10:04:18;97946.74;;;13.55;48.58
55022;BME280;68328;35.990;-86.756;2023-03-12T10:06:30;97944.87;;;14.01;48.73
55022;BME280;68328;35.990;-86.756;2023-03-12T10:09:04;97960.93;;;13.38;48.77
55022;BME280;68328;35.990;-86.756;2023-03-12T10:11:27;97963.54;;;13.94;48.78
55022;BME280;68328;35.990;-86.756;2023-03-12T10:13:54;97961.16;;;13.49;48.38
55022;BME280;68328;35.990;-86.756;2023-03-12T10:16:19;97952.95;;;13.58;48.47
55022;BME280;68328;35.990;-86.756;2023-03-12T10:18:51;97945.53;;;13.68;48.33
55022;BME280;68328;35.990;-86.756;2023-03-12T10:21:11;97941.53;;;13.72;48.55
55022;BME280;68328;35.990;-86.756;2023-03-12T10:25:56;97945.91;;;13.58;48.68
55022;BME280;68328;35.990;-86.756;2023-03-12T10:28:17;97942.67;;;13.63;48.69
55022;BME280;68328;35.990;-86.756;2023-03-12T10:30:47;97940.29;;;13.86;48.68
55022;BME280;68328;35.990;-86.756;2023-03-12T10:33:12;97936.50;;;13.61;48.54
55022;BME280;68328;35.990;-86.756;2023-03-12T10:35:31;97941.16;;;13.61;48.71
55022;BME280;68328;35.990;-86.756;2023-03-12T10:37:57;97943.84;;;13.65;48.57
55022;BME280;68328;35.990;-86.756;2023-03-12T10:40:24;97943.68;;;13.72;48.85
55022;BME280;68328;35.990;-86.756;2023-03-12T10:42:47;97952.84;;;13.66;48.41
55022;BME280;68328;35.990;-86.756;2023-03-12T10:45:23;97960.53;;;13.67;48.39
55022;BME280;68328;35.990;-86.756;2023-03-12T10:47:38;97957.97;;;13.89;48.79
55022;BME280;68328;35.990;-86.756;2023-03-12T10:50:13;97953.39;;;13.69;48.52
55022;BME280;68328;35.990;-86.756;2023-03-12T10:52:28;97943.58;;;13.68;48.50
55022;BME280;68328;35.990;-86.756;2023-03-12T10:54:53;97952.98;;;13.95;48.47
55022;BME280;68328;35.990;-86.756;2023-03-12T10:57:19;97949.90;;;13.79;48.60
55022;BME280;68328;35.990;-86.756;2023-03-12T10:59:46;97946.66;;;13.47;48.88
55022;BME280;68328;35.990;-86.756;2023-03-12T11:04:34;97953.40;;;13.56;48.77
55022;BME280;68328;35.990;-86.756;2023-03-12T11:07:09;97960.40;;;13.63;48.22
55022;BME280;68328;35.990;-86.756;2023-03-12T11:09:25;97962.33;;;13.69;48.67
55022;BME280;68328;35.990;-86.756;2023-03-12T11:11:50;97963.12;;;13.79;49.14
55022;BME280;68328;35.990;-86.756;2023-03-12T11:14:18;97959.13;;;13.66;48.82
55022;BME280;68328;35.990;-86.756;2023-03-12T11:16:40;97948.82;;;13.74;48.66
55022;BME280;68328;35.990;-86.756;2023-03-12T11:19:09;97948.15;;;13.72;48.67
55022;BME280;68328;35.990;-86.756;2023-03-12T11:21:34;97962.69;;;13.78;48.54
55022;BME280;68328;35.990;-86.756;2023-03-12T11:24:06;97959.01;;;13.81;48.55
55022;BME280;68328;35.990;-86.756;2023-03-12T11:26:24;97958.63;;;13.93;48.22
55022;BME280;68328;35.990;-86.756;2023-03-12T11:28:50;97959.16;;;13.73;48.75
55022;BME280;68328;35.990;-86.756;2023-03-12T11:31:21;97959.98;;;13.63;48.38
55022;BME280;68328;35.990;-86.756;2023-03-12T11:33:38;97965.77;;;13.56;48.33
55022;BME280;68328;35.990;-86.756;2023-03-12T11:36:13;97970.60;;;13.48;49.12
55022;BME280;68328;35.990;-86.756;2023-03-12T11:38:33;97967.99;;;13.77;48.92
55022;BME280;68328;35.990;-86.756;2023-03-12T11:41:04;97973.05;;;13.82;48.84
55022;BME280;68328;35.990;-86.756;2023-03-12T11:43:35;97979.01;;;13.58;48.57
55022;BME280;68328;35.990;-86.756;2023-03-12T11:45:56;97978.96;;;13.68;48.86
55022;BME280;68328;35.990;-86.756;2023-03-12T11:48:18;97975.46;;;13.86;48.60
55022;BME280;68328;35.990;-86.756;2023-03-12T11:50:47;97974.61;;;13.57;48.51
55022;BME280;68328;35.990;-86.756;2023-03-12T11:55:40;97962.15;;;13.61;48.24
55022;BME280;68328;35.990;-86.756;2023-03-12T11:58:05;97956.32;;;13.74;48.25
55022;BME280;68328;35.990;-86.756;2023-03-12T12:00:21;97956.56;;;13.73;48.36
55022;BME280;68328;35.990;-86.756;2023-03-12T12:05:21;97959.91;;;14.02;48.27
55022;BME280;68328;35.990;-86.756;2023-03-12T12:07:45;97938.98;;;13.75;48.75
55022;BME280;68328;35.990;-86.756;2023-03-12T12:10:05;97939.55;;;13.88;48.79
55022;BME280;68328;35.990;-86.756;2023-03-12T12:15:01;97949.14;;;13.74;48.55
55022;BME280;68328;35.990;-86.756;2023-03-12T12:17:27;97947.45;;;14.01;48.82
55022;BME280;68328;35.990;-86.756;2023-03-12T12:19:54;97961.48;;;13.69;48.63
55022;BME280;68328;35.990;-86.756;2023-03-12T12:24:43;97958.44;;;13.76;48.61
55022;BME280;68328;35.990;-86.756;2023-03-12T12:27:01;97962.11;;;13.86;48.60
55022;BME280;68328;35.990;-86.756;2023-03-12T12:29:30;97958.64;;;14.29;47.86
55022;BME280;68328;35.990;-86.756;2023-03-12T12:31:52;97947.00;;;13.93;48.69
55022;BME280;68328;35.990;-86.756;2023-03-12T12:36:36;97928.70;;;13.96;48.17
55022;BME280;68328;35.990;-86.756;2023-03-12T12:39:07;97941.60;;;14.18;48.13
55022;BME280;68328;35.990;-86.756;2023-03-12T12:41:33;97951.94;;;14.18;48.09
55022;BME280;68328;35.990;-86.756;2023-03-12T12:43:55;97947.84;;;13.91;48.09
55022;BME280;68328;35.990;-86.756;2023-03-12T12:46:20;97959.66;;;14.00;48.49
55022;BME280;68328;35.990;-86.756;2023-03-12T12:48:45;97981.74;;;13.89;48.37
55022;BME280;68328;35.990;-86.756;2023-03-12T12:51:09;98004.67;;;14.19;48.14
55022;BME280;68328;35.990;-86.756;2023-03-12T12:53:38;98013.56;;;14.02;47.72